Terminal Aerodrome Forecast
Issued by NWS Northern Indiana

Home | Current Version | Previous Version | Text Only | Print | Product List | Glossary On
Versions: 1 2 3 4 5 6 7 8 9 10 11 12 13 14 15 16 17 18 19 20 21
700
FTUS43 KIWX 212327
TAFFWA
TAF
KFWA 212327Z 2200/2224 12007KT P6SM VCSH OVC080
     FM220600 20006KT P6SM BKN050
     FM220900 23006KT P6SM BKN015
     FM221600 27008KT P6SM BKN030
     FM222000 30009KT P6SM BKN050=

USA.gov is the U.S. government's official web portal to all federal, state and local government web resources and services.